Time;durP1;ratioP1;P1;durP2;ratioP2;P2;SDS_P1;SDS_P2;PMS_P1;PMS_P2;Temp;Humidity;BMP_temperature;BMP_pressure;BME280_temperature;BME280_humidity;BME280_pressure;Samples;Min_cycle;Max_cycle;Signal;HPM_P1;HPM_P2
2022/02/28 00:01:22;;;;;;;;;;;24.00;44.00;;;;;;1632558;73;1148;-73
2022/02/28 00:03:23;;;;;;;;;;;23.90;44.10;;;;;;1629073;73;1905;-73
2022/02/28 00:05:24;;;;;;;;;;;24.00;44.10;;;;;;1629947;73;781;-74
2022/02/28 00:07:26;;;;;;;;;;;23.90;44.20;;;;;;1629901;71;770;-73
2022/02/28 00:09:28;;;;;;;;;;;23.90;44.20;;;;;;1629908;73;801;-75
2022/02/28 00:11:30;;;;;;;;;;;23.90;44.20;;;;;;1625397;73;1134;-73
2022/02/28 00:13:32;;;;;;;;;;;23.90;44.20;;;;;;1632409;73;693;-74
2022/02/28 00:15:34;;;;;;;;;;;23.90;44.10;;;;;;1632724;71;742;-73
2022/02/28 00:17:36;;;;;;;;;;;23.90;44.20;;;;;;1630194;73;690;-74
2022/02/28 00:19:38;;;;;;;;;;;23.90;44.20;;;;;;1629985;71;734;-74
2022/02/28 00:21:39;;;;;;;;;;;23.90;44.30;;;;;;1630111;73;1138;-77
2022/02/28 00:23:41;;;;;;;;;;;23.90;44.30;;;;;;1632510;73;1939;-74
2022/02/28 00:25:43;;;;;;;;;;;23.90;44.30;;;;;;1632359;73;794;-76
2022/02/28 00:27:45;;;;;;;;;;;23.90;44.30;;;;;;1630089;71;740;-73
2022/02/28 00:29:47;;;;;;;;;;;23.90;44.40;;;;;;1632465;72;796;-73
2022/02/28 00:31:49;;;;;;;;;;;23.90;44.30;;;;;;1631731;73;1154;-73
2022/02/28 00:33:51;;;;;;;;;;;23.80;44.30;;;;;;1617266;73;709;-72
2022/02/28 00:35:53;;;;;;;;;;;23.90;44.40;;;;;;1620972;71;669;-73
2022/02/28 00:37:54;;;;;;;;;;;23.80;44.30;;;;;;1625269;71;756;-73
2022/02/28 00:39:56;;;;;;;;;;;23.90;44.30;;;;;;1574976;74;730;-75
2022/02/28 00:41:58;;;;;;;;;;;23.90;44.30;;;;;;1567686;74;1133;-75
2022/02/28 00:44:00;;;;;;;;;;;23.90;44.40;;;;;;1609313;73;868;-71
2022/02/28 00:46:02;;;;;;;;;;;23.90;44.40;;;;;;1602542;74;765;-71
2022/02/28 00:48:04;;;;;;;;;;;23.90;44.40;;;;;;1602649;73;705;-70
2022/02/28 00:50:06;;;;;;;;;;;23.90;44.40;;;;;;1602444;73;781;-71
2022/02/28 00:52:08;;;;;;;;;;;24.00;44.40;;;;;;1602698;74;1132;-72
2022/02/28 00:54:10;;;;;;;;;;;23.80;44.40;;;;;;1602783;74;796;-72
2022/02/28 00:56:12;;;;;;;;;;;23.90;44.50;;;;;;1602687;73;736;-71
2022/02/28 00:58:14;;;;;;;;;;;23.90;44.60;;;;;;1623420;71;734;-71
2022/02/28 01:00:17;;;;;;;;;;;23.90;44.50;;;;;;1625264;73;738;-71
2022/02/28 01:02:20;;;;;;;;;;;23.90;44.60;;;;;;1616867;73;1943;-70
2022/02/28 01:04:22;;;;;;;;;;;23.90;44.70;;;;;;1629882;71;718;-72
2022/02/28 01:06:24;;;;;;;;;;;23.90;44.60;;;;;;1632047;73;781;-74
2022/02/28 01:08:26;;;;;;;;;;;23.90;44.60;;;;;;1620731;71;664;-70
2022/02/28 01:10:28;;;;;;;;;;;23.90;44.70;;;;;;1632472;73;765;-71
2022/02/28 01:12:29;;;;;;;;;;;23.90;44.70;;;;;;1617471;73;1143;-71
2022/02/28 01:14:31;;;;;;;;;;;23.90;44.70;;;;;;1617698;73;805;-71
2022/02/28 01:16:33;;;;;;;;;;;23.90;44.60;;;;;;1608690;71;842;-70
2022/02/28 01:18:35;;;;;;;;;;;23.80;44.60;;;;;;1617670;73;774;-70
2022/02/28 01:20:37;;;;;;;;;;;23.90;44.70;;;;;;1631168;71;1159;-71
2022/02/28 01:22:39;;;;;;;;;;;23.90;44.70;;;;;;1627459;71;1935;-73
2022/02/28 01:24:41;;;;;;;;;;;23.90;44.70;;;;;;1616243;71;754;-73
2022/02/28 01:26:43;;;;;;;;;;;24.00;44.70;;;;;;1631184;71;764;-73
2022/02/28 01:28:45;;;;;;;;;;;23.90;44.70;;;;;;1628219;71;832;-70
2022/02/28 01:30:47;;;;;;;;;;;23.90;44.70;;;;;;1631644;71;1224;-70
2022/02/28 01:32:49;;;;;;;;;;;23.90;44.70;;;;;;1632442;72;792;-70
2022/02/28 01:34:51;;;;;;;;;;;23.90;44.60;;;;;;1632597;72;804;-72
2022/02/28 01:36:52;;;;;;;;;;;23.90;44.70;;;;;;1628533;72;768;-71
2022/02/28 01:38:54;;;;;;;;;;;23.90;44.70;;;;;;1632601;71;1034;-72
2022/02/28 01:40:56;;;;;;;;;;;23.90;44.70;;;;;;1632046;72;1135;-71
2022/02/28 01:42:58;;;;;;;;;;;23.90;44.70;;;;;;1632582;72;1941;-73
2022/02/28 01:45:00;;;;;;;;;;;23.90;44.70;;;;;;1632606;72;833;-73
2022/02/28 01:47:02;;;;;;;;;;;23.90;44.70;;;;;;1626358;71;745;-72
2022/02/28 01:49:04;;;;;;;;;;;23.90;44.70;;;;;;1626553;71;792;-72
2022/02/28 01:51:06;;;;;;;;;;;23.90;44.70;;;;;;1630649;71;1151;-70
2022/02/28 01:53:07;;;;;;;;;;;23.90;44.70;;;;;;1631928;72;800;-71
2022/02/28 01:55:10;;;;;;;;;;;23.90;44.70;;;;;;1632581;72;705;-72
2022/02/28 01:57:12;;;;;;;;;;;23.90;44.70;;;;;;1632661;72;776;-71
2022/02/28 01:59:13;;;;;;;;;;;23.90;44.80;;;;;;1631728;71;683;-72
2022/02/28 02:01:15;;;;;;;;;;;23.90;44.70;;;;;;1631871;72;1098;-72
2022/02/28 02:03:17;;;;;;;;;;;23.90;44.80;;;;;;1632586;72;1921;-74
2022/02/28 02:05:19;;;;;;;;;;;23.90;44.80;;;;;;1632439;72;723;-72
2022/02/28 02:07:21;;;;;;;;;;;23.90;44.80;;;;;;1632666;71;808;-74
2022/02/28 02:09:23;;;;;;;;;;;23.90;44.70;;;;;;1626885;72;901;-75
2022/02/28 02:11:25;;;;;;;;;;;23.90;44.80;;;;;;1624124;72;1146;-73
2022/02/28 02:13:27;;;;;;;;;;;23.90;44.80;;;;;;1631930;71;745;-74
2022/02/28 02:15:28;;;;;;;;;;;23.90;44.80;;;;;;1627618;71;694;-73
2022/02/28 02:17:30;;;;;;;;;;;23.80;44.70;;;;;;1591494;73;691;-73
2022/02/28 02:19:32;;;;;;;;;;;23.90;44.80;;;;;;1624932;71;777;-74
2022/02/28 02:21:34;;;;;;;;;;;23.80;44.70;;;;;;1627448;72;1152;-73
2022/02/28 02:23:36;;;;;;;;;;;23.90;44.80;;;;;;1623219;72;2057;-71
2022/02/28 02:25:38;;;;;;;;;;;23.90;44.80;;;;;;1627299;71;723;-72
2022/02/28 02:27:40;;;;;;;;;;;23.90;44.80;;;;;;1627924;72;703;-71
2022/02/28 02:29:41;;;;;;;;;;;23.90;44.90;;;;;;1632418;71;757;-70
2022/02/28 02:31:43;;;;;;;;;;;23.90;45.00;;;;;;1632067;72;1236;-72
2022/02/28 02:33:45;;;;;;;;;;;23.90;44.90;;;;;;1623747;72;703;-72
2022/02/28 02:35:49;;;;;;;;;;;23.90;44.90;;;;;;1632415;72;716;-73
2022/02/28 02:37:51;;;;;;;;;;;23.90;44.90;;;;;;1625389;71;1072;-72
2022/02/28 02:39:53;;;;;;;;;;;23.90;45.00;;;;;;1624940;72;708;-72
2022/02/28 02:41:54;;;;;;;;;;;23.90;45.00;;;;;;1632199;72;1122;-71
2022/02/28 02:43:56;;;;;;;;;;;23.90;44.90;;;;;;1629520;72;1943;-72
2022/02/28 02:45:58;;;;;;;;;;;23.90;45.00;;;;;;1629310;72;709;-71
2022/02/28 02:48:02;;;;;;;;;;;23.90;45.00;;;;;;1631728;71;672;-73
2022/02/28 02:50:04;;;;;;;;;;;23.90;45.00;;;;;;1627515;71;1156;-70
2022/02/28 02:52:06;;;;;;;;;;;23.90;45.00;;;;;;1625399;71;1159;-73
2022/02/28 02:54:08;;;;;;;;;;;23.90;45.00;;;;;;1614511;71;813;-72
2022/02/28 02:56:10;;;;;;;;;;;23.90;45.00;;;;;;1625600;71;723;-73
2022/02/28 02:58:15;;;;;;;;;;;23.90;45.00;;;;;;1626873;71;698;-71
2022/02/28 03:00:17;;;;;;;;;;;23.80;45.00;;;;;;1631685;71;760;-72
2022/02/28 03:02:19;;;;;;;;;;;23.90;45.00;;;;;;1629585;71;1118;-72
2022/02/28 03:04:21;;;;;;;;;;;23.90;45.10;;;;;;1617556;73;1944;-73
2022/02/28 03:06:23;;;;;;;;;;;23.90;45.10;;;;;;1631366;71;730;-71
2022/02/28 03:08:25;;;;;;;;;;;23.90;45.10;;;;;;1632015;71;715;-72
2022/02/28 03:10:27;;;;;;;;;;;23.90;45.00;;;;;;1614818;71;704;-71
2022/02/28 03:12:28;;;;;;;;;;;23.90;45.10;;;;;;1629091;73;1038;-72
2022/02/28 03:14:30;;;;;;;;;;;23.90;45.00;;;;;;1623661;71;709;-72
2022/02/28 03:16:32;;;;;;;;;;;23.90;45.00;;;;;;1630985;73;785;-71
2022/02/28 03:18:34;;;;;;;;;;;23.90;45.00;;;;;;1618876;71;631;-72
2022/02/28 03:20:36;;;;;;;;;;;23.90;45.10;;;;;;1625003;71;1178;-74
2022/02/28 03:22:38;;;;;;;;;;;23.90;45.10;;;;;;1628596;71;726;-73
2022/02/28 03:24:40;;;;;;;;;;;23.90;45.10;;;;;;1624565;71;1937;-71
2022/02/28 03:26:42;;;;;;;;;;;23.90;45.10;;;;;;1625468;71;726;-72
2022/02/28 03:28:43;;;;;;;;;;;23.90;45.00;;;;;;1617212;71;1050;-71
2022/02/28 03:30:45;;;;;;;;;;;23.90;45.10;;;;;;1615933;73;1115;-72
2022/02/28 03:32:47;;;;;;;;;;;23.90;45.10;;;;;;1630232;71;800;-72
2022/02/28 03:34:49;;;;;;;;;;;23.90;45.10;;;;;;1623471;71;593;-73
2022/02/28 03:36:51;;;;;;;;;;;23.90;45.10;;;;;;1631729;73;657;-74
2022/02/28 03:38:53;;;;;;;;;;;23.90;45.10;;;;;;1628598;71;745;-72
2022/02/28 03:40:55;;;;;;;;;;;23.90;45.10;;;;;;1624396;73;1200;-74
2022/02/28 03:42:58;;;;;;;;;;;24.00;45.10;;;;;;1617408;73;783;-73
2022/02/28 03:44:59;;;;;;;;;;;23.90;45.10;;;;;;1624261;71;1886;-73
2022/02/28 03:47:01;;;;;;;;;;;23.90;45.20;;;;;;1632250;73;747;-74
2022/02/28 03:49:03;;;;;;;;;;;24.00;45.10;;;;;;1625942;73;818;-72
2022/02/28 03:51:07;;;;;;;;;;;24.10;45.10;;;;;;1625314;71;1145;-73
2022/02/28 03:53:09;;;;;;;;;;;24.20;45.00;;;;;;1625446;73;704;-72
2022/02/28 03:55:11;;;;;;;;;;;24.20;45.00;;;;;;1617036;73;811;-72
2022/02/28 03:57:13;;;;;;;;;;;24.30;45.10;;;;;;1625859;71;659;-74
2022/02/28 03:59:15;;;;;;;;;;;24.20;45.00;;;;;;1623194;71;686;-71
2022/02/28 04:01:17;;;;;;;;;;;24.30;45.10;;;;;;1631174;71;1138;-72
2022/02/28 04:03:18;;;;;;;;;;;24.30;45.00;;;;;;1618818;71;1919;-73
2022/02/28 04:05:20;;;;;;;;;;;24.30;45.00;;;;;;1631357;73;790;-70
2022/02/28 04:07:22;;;;;;;;;;;24.30;45.00;;;;;;1627806;71;726;-71
2022/02/28 04:09:24;;;;;;;;;;;24.30;45.00;;;;;;1632653;71;800;-73
2022/02/28 04:11:26;;;;;;;;;;;24.40;45.00;;;;;;1614377;71;1131;-73
2022/02/28 04:13:28;;;;;;;;;;;24.30;45.00;;;;;;1631974;71;689;-74
2022/02/28 04:15:30;;;;;;;;;;;24.30;45.10;;;;;;1611591;71;763;-74
2022/02/28 04:17:33;;;;;;;;;;;24.30;45.00;;;;;;1630458;72;735;-71
2022/02/28 04:19:35;;;;;;;;;;;24.30;45.00;;;;;;1632067;71;699;-72
2022/02/28 04:21:37;;;;;;;;;;;24.30;45.10;;;;;;1631815;73;1165;-72
2022/02/28 04:23:39;;;;;;;;;;;24.40;45.00;;;;;;1631939;71;1935;-73
2022/02/28 04:25:42;;;;;;;;;;;24.30;45.10;;;;;;1626533;71;796;-74
2022/02/28 04:27:44;;;;;;;;;;;24.30;45.10;;;;;;1618899;72;644;-74
2022/02/28 04:29:46;;;;;;;;;;;24.30;45.10;;;;;;1632165;71;716;-73
2022/02/28 04:31:48;;;;;;;;;;;24.30;45.00;;;;;;1625808;73;1149;-73
2022/02/28 04:33:50;;;;;;;;;;;24.30;45.10;;;;;;1632276;73;698;-73
2022/02/28 04:35:52;;;;;;;;;;;24.30;45.10;;;;;;1632490;73;739;-71
2022/02/28 04:37:53;;;;;;;;;;;24.40;45.00;;;;;;1630442;71;715;-71
2022/02/28 04:39:55;;;;;;;;;;;24.40;45.10;;;;;;1632416;73;725;-71
2022/02/28 04:41:57;;;;;;;;;;;24.40;45.10;;;;;;1632395;73;1156;-71
2022/02/28 04:43:59;;;;;;;;;;;24.40;45.10;;;;;;1632255;73;1929;-74
2022/02/28 04:46:01;;;;;;;;;;;24.40;45.10;;;;;;1630399;71;756;-71
2022/02/28 04:48:03;;;;;;;;;;;24.40;45.00;;;;;;1630521;73;742;-71
2022/02/28 04:50:05;;;;;;;;;;;24.40;45.00;;;;;;1630545;71;773;-73
2022/02/28 04:52:07;;;;;;;;;;;24.40;45.10;;;;;;1632179;72;1117;-71
2022/02/28 04:54:09;;;;;;;;;;;24.40;45.00;;;;;;1632354;72;776;-72
2022/02/28 04:56:10;;;;;;;;;;;24.50;45.00;;;;;;1632417;72;789;-73
2022/02/28 04:58:12;;;;;;;;;;;24.50;45.00;;;;;;1632389;71;747;-75
2022/02/28 05:00:14;;;;;;;;;;;24.50;45.00;;;;;;1630488;72;723;-74
2022/02/28 05:02:16;;;;;;;;;;;24.50;45.00;;;;;;1631170;72;1222;-77
2022/02/28 05:04:18;;;;;;;;;;;24.50;45.00;;;;;;1622742;72;1936;-73
2022/02/28 05:06:20;;;;;;;;;;;24.50;45.00;;;;;;1629134;71;771;-73
2022/02/28 05:08:22;;;;;;;;;;;24.50;45.00;;;;;;1617676;71;797;-73
2022/02/28 05:10:24;;;;;;;;;;;24.50;45.00;;;;;;1632435;73;743;-75
2022/02/28 05:12:26;;;;;;;;;;;24.40;45.00;;;;;;1632025;73;1072;-74
2022/02/28 05:14:28;;;;;;;;;;;24.50;45.10;;;;;;1615950;73;717;-75
2022/02/28 05:16:30;;;;;;;;;;;24.50;45.10;;;;;;1632622;71;774;-74
2022/02/28 05:18:32;;;;;;;;;;;24.50;45.00;;;;;;1632732;71;673;-73
2022/02/28 05:20:33;;;;;;;;;;;24.60;45.00;;;;;;1610284;71;711;-72
2022/02/28 05:22:35;;;;;;;;;;;24.50;45.10;;;;;;1631346;73;772;-71
2022/02/28 05:24:37;;;;;;;;;;;24.60;44.90;;;;;;1631907;73;1944;-72
2022/02/28 05:26:39;;;;;;;;;;;24.60;44.80;;;;;;1629872;71;711;-77
2022/02/28 05:28:41;;;;;;;;;;;24.60;44.70;;;;;;1618593;73;723;-75
2022/02/28 05:30:47;;;;;;;;;;;24.70;44.70;;;;;;1576518;74;1156;-73
2022/02/28 05:32:46;;;;;;;;;;;24.70;44.60;;;;;;1602930;74;1124;-73
2022/02/28 05:34:48;;;;;;;;;;;24.70;44.50;;;;;;1607611;74;738;-74
2022/02/28 05:36:50;;;;;;;;;;;24.70;44.40;;;;;;1601538;74;760;-75
2022/02/28 05:38:52;;;;;;;;;;;24.70;44.40;;;;;;1606825;72;832;-74
2022/02/28 05:40:54;;;;;;;;;;;24.70;44.30;;;;;;1603627;72;1166;-74
2022/02/28 05:42:56;;;;;;;;;;;24.70;44.30;;;;;;1606978;74;765;-74
2022/02/28 05:44:58;;;;;;;;;;;24.70;44.20;;;;;;1608341;74;1944;-73
2022/02/28 05:47:00;;;;;;;;;;;24.70;44.20;;;;;;1596608;72;705;-72
2022/02/28 05:49:02;;;;;;;;;;;24.70;44.20;;;;;;1600218;74;796;-75
2022/02/28 05:51:03;;;;;;;;;;;24.70;44.20;;;;;;1603374;72;1124;-74
2022/02/28 05:53:05;;;;;;;;;;;24.70;44.30;;;;;;1607846;74;706;-74
2022/02/28 05:55:08;;;;;;;;;;;24.70;44.20;;;;;;1604942;74;726;-74
2022/02/28 05:57:10;;;;;;;;;;;24.70;44.20;;;;;;1604702;72;779;-75
2022/02/28 05:59:11;;;;;;;;;;;24.70;44.20;;;;;;1602389;72;808;-75
2022/02/28 06:01:13;;;;;;;;;;;24.70;44.10;;;;;;1604675;72;1127;-74
2022/02/28 06:03:15;;;;;;;;;;;24.70;44.10;;;;;;1601504;74;702;-74
2022/02/28 06:05:18;;;;;;;;;;;24.80;44.10;;;;;;1605386;74;1924;-75
2022/02/28 06:07:20;;;;;;;;;;;24.70;44.10;;;;;;1604465;72;825;-73
2022/02/28 06:09:21;;;;;;;;;;;24.70;44.10;;;;;;1607680;72;743;-74
2022/02/28 06:11:25;;;;;;;;;;;24.70;44.10;;;;;;1607929;74;1175;-74
2022/02/28 06:13:27;;;;;;;;;;;24.80;44.10;;;;;;1607484;74;773;-75
2022/02/28 06:15:29;;;;;;;;;;;24.70;44.10;;;;;;1599148;72;732;-75
2022/02/28 06:17:32;;;;;;;;;;;24.70;44.10;;;;;;1605507;72;713;-76
2022/02/28 06:19:34;;;;;;;;;;;24.80;44.10;;;;;;1586205;73;742;-75
2022/02/28 06:21:36;;;;;;;;;;;24.70;44.00;;;;;;1600704;74;1151;-74
2022/02/28 06:23:37;;;;;;;;;;;24.70;44.10;;;;;;1600365;74;712;-75
2022/02/28 06:25:39;;;;;;;;;;;24.70;44.00;;;;;;1600513;74;1945;-79
2022/02/28 06:27:41;;;;;;;;;;;24.70;44.00;;;;;;1595626;73;739;-75
2022/02/28 06:29:43;;;;;;;;;;;24.70;44.00;;;;;;1599733;74;714;-74
2022/02/28 06:31:45;;;;;;;;;;;24.70;44.00;;;;;;1599433;73;1131;-75
2022/02/28 06:33:47;;;;;;;;;;;24.70;43.90;;;;;;1598146;73;796;-74
2022/02/28 06:35:49;;;;;;;;;;;24.70;44.00;;;;;;1600654;73;777;-73
2022/02/28 06:37:51;;;;;;;;;;;24.70;44.00;;;;;;1600667;74;772;-74
2022/02/28 06:39:53;;;;;;;;;;;24.70;43.90;;;;;;1600573;74;734;-75
2022/02/28 06:41:55;;;;;;;;;;;24.70;43.90;;;;;;1600438;74;1101;-74
2022/02/28 06:43:57;;;;;;;;;;;24.70;43.90;;;;;;1600405;73;729;-74
2022/02/28 06:45:59;;;;;;;;;;;24.70;43.90;;;;;;1600560;74;1938;-75
2022/02/28 06:48:01;;;;;;;;;;;24.70;43.90;;;;;;1597290;74;733;-77
2022/02/28 06:50:03;;;;;;;;;;;24.70;44.00;;;;;;1600497;73;755;-75
2022/02/28 06:52:05;;;;;;;;;;;24.70;44.10;;;;;;1600622;74;1152;-76
2022/02/28 06:54:07;;;;;;;;;;;24.70;44.00;;;;;;1600654;74;725;-75
2022/02/28 06:56:09;;;;;;;;;;;24.70;44.10;;;;;;1600532;74;780;-75
2022/02/28 06:58:11;;;;;;;;;;;24.70;44.00;;;;;;1600598;73;660;-73
2022/02/28 07:00:13;;;;;;;;;;;24.70;44.00;;;;;;1600518;74;666;-76
2022/02/28 07:02:15;;;;;;;;;;;24.70;44.00;;;;;;1595947;74;1141;-75
2022/02/28 07:04:17;;;;;;;;;;;24.80;44.00;;;;;;1600658;74;738;-75
2022/02/28 07:06:22;;;;;;;;;;;24.70;44.00;;;;;;1600420;74;1929;-75
2022/02/28 07:08:23;;;;;;;;;;;24.80;44.00;;;;;;1600243;73;1147;-74
2022/02/28 07:10:24;;;;;;;;;;;24.70;44.00;;;;;;1600377;74;763;-74
2022/02/28 07:12:26;;;;;;;;;;;24.70;44.00;;;;;;1600611;74;1108;-74
2022/02/28 07:14:28;;;;;;;;;;;24.70;44.10;;;;;;1600574;73;725;-72
2022/02/28 07:16:30;;;;;;;;;;;24.70;44.20;;;;;;1599678;74;758;-75
2022/02/28 07:18:32;;;;;;;;;;;24.70;44.10;;;;;;1600013;73;706;-75
2022/02/28 07:20:34;;;;;;;;;;;24.70;44.20;;;;;;1600566;73;730;-72
2022/02/28 07:22:36;;;;;;;;;;;24.70;44.00;;;;;;1600621;74;674;-74
2022/02/28 07:24:37;;;;;;;;;;;24.70;44.00;;;;;;1600439;74;1927;-73
2022/02/28 07:26:39;;;;;;;;;;;24.70;44.10;;;;;;1600412;74;725;-74
2022/02/28 07:28:41;;;;;;;;;;;24.70;44.20;;;;;;1599186;73;700;-72
2022/02/28 07:30:43;;;;;;;;;;;24.70;44.20;;;;;;1600559;74;1114;-73
2022/02/28 07:32:45;;;;;;;;;;;24.70;44.30;;;;;;1599203;74;783;-72
2022/02/28 07:34:47;;;;;;;;;;;24.80;44.20;;;;;;1597825;74;795;-71
2022/02/28 07:36:49;;;;;;;;;;;24.80;44.00;;;;;;1595846;74;714;-73
2022/02/28 07:38:51;;;;;;;;;;;24.70;44.00;;;;;;1600434;73;710;-73
2022/02/28 07:40:53;;;;;;;;;;;24.80;43.90;;;;;;1600401;74;1117;-72
2022/02/28 07:42:55;;;;;;;;;;;24.80;43.80;;;;;;1600358;74;782;-74
2022/02/28 07:44:57;;;;;;;;;;;24.80;43.90;;;;;;1600157;74;1935;-73
2022/02/28 07:46:59;;;;;;;;;;;24.80;43.80;;;;;;1597626;73;856;-74
2022/02/28 07:49:01;;;;;;;;;;;24.80;43.70;;;;;;1600428;74;782;-74
2022/02/28 07:51:02;;;;;;;;;;;24.80;43.70;;;;;;1600256;73;1111;-71
2022/02/28 07:53:04;;;;;;;;;;;24.70;43.60;;;;;;1600343;74;747;-72
2022/02/28 07:55:06;;;;;;;;;;;24.70;43.60;;;;;;1600337;74;767;-75
2022/02/28 07:57:08;;;;;;;;;;;24.80;43.70;;;;;;1600507;74;748;-70
2022/02/28 07:59:10;;;;;;;;;;;24.80;43.60;;;;;;1600148;73;711;-70
2022/02/28 08:01:12;;;;;;;;;;;24.70;43.60;;;;;;1595968;74;1146;-70
2022/02/28 08:03:14;;;;;;;;;;;24.80;43.60;;;;;;1600486;74;753;-72
2022/02/28 08:05:16;;;;;;;;;;;24.70;43.60;;;;;;1600459;74;1924;-71
2022/02/28 08:07:17;;;;;;;;;;;24.80;43.50;;;;;;1600425;73;740;-70
2022/02/28 08:09:21;;;;;;;;;;;24.80;43.50;;;;;;1600645;74;713;-70
2022/02/28 08:11:23;;;;;;;;;;;24.80;43.40;;;;;;1600370;73;1174;-72
2022/02/28 08:13:25;;;;;;;;;;;24.70;43.40;;;;;;1600488;74;720;-71
2022/02/28 08:15:27;;;;;;;;;;;24.80;43.50;;;;;;1600413;73;718;-72
2022/02/28 08:17:28;;;;;;;;;;;24.80;43.40;;;;;;1599130;74;729;-72
2022/02/28 08:19:30;;;;;;;;;;;24.80;43.40;;;;;;1599990;73;746;-72
2022/02/28 08:21:32;;;;;;;;;;;24.80;43.50;;;;;;1600595;74;1112;-72
2022/02/28 08:23:34;;;;;;;;;;;24.80;43.50;;;;;;1600541;74;808;-72
2022/02/28 08:25:36;;;;;;;;;;;24.80;43.50;;;;;;1599655;74;1940;-72
2022/02/28 08:27:38;;;;;;;;;;;24.90;43.60;;;;;;1600694;73;719;-74
2022/02/28 08:29:40;;;;;;;;;;;24.90;43.60;;;;;;1600221;74;755;-71
2022/02/28 08:31:42;;;;;;;;;;;24.90;43.60;;;;;;1600569;74;1123;-71
2022/02/28 08:33:44;;;;;;;;;;;24.90;43.50;;;;;;1600482;74;709;-71
2022/02/28 08:35:46;;;;;;;;;;;25.00;43.50;;;;;;1600260;73;662;-73
2022/02/28 08:37:48;;;;;;;;;;;25.00;43.50;;;;;;1600385;74;719;-73
2022/02/28 08:39:50;;;;;;;;;;;24.90;43.40;;;;;;1600157;73;724;-73
2022/02/28 08:41:51;;;;;;;;;;;25.00;43.50;;;;;;1595988;74;1148;-71
2022/02/28 08:43:53;;;;;;;;;;;25.00;43.40;;;;;;1600353;74;764;-72
2022/02/28 08:45:55;;;;;;;;;;;25.00;43.40;;;;;;1600174;74;1944;-71
2022/02/28 08:47:57;;;;;;;;;;;25.00;43.40;;;;;;1600187;73;785;-72
2022/02/28 08:50:00;;;;;;;;;;;25.00;43.40;;;;;;1600034;73;778;-72
2022/02/28 08:52:04;;;;;;;;;;;25.00;43.30;;;;;;1600102;73;1116;-71
2022/02/28 08:54:06;;;;;;;;;;;25.10;43.30;;;;;;1599279;73;805;-73
2022/02/28 08:56:09;;;;;;;;;;;25.10;43.20;;;;;;1600790;73;738;-71
2022/02/28 08:58:11;;;;;;;;;;;25.10;43.20;;;;;;1602257;73;782;-77
2022/02/28 09:00:13;;;;;;;;;;;25.10;43.20;;;;;;1598370;73;791;-74
2022/02/28 09:02:15;;;;;;;;;;;25.10;43.10;;;;;;1600326;73;1140;-75
2022/02/28 09:04:17;;;;;;;;;;;25.20;43.10;;;;;;1600542;74;741;-73
2022/02/28 09:06:19;;;;;;;;;;;25.10;43.00;;;;;;1600287;74;1956;-73
2022/02/28 09:08:21;;;;;;;;;;;25.20;43.00;;;;;;1603089;73;721;-73
2022/02/28 09:10:23;;;;;;;;;;;25.20;43.00;;;;;;1605754;73;739;-74
2022/02/28 09:12:25;;;;;;;;;;;25.10;42.90;;;;;;1600340;74;1097;-73
2022/02/28 09:14:27;;;;;;;;;;;25.20;42.90;;;;;;1600580;74;688;-74
2022/02/28 09:16:31;;;;;;;;;;;25.20;42.90;;;;;;1600380;74;777;-73
2022/02/28 09:18:32;;;;;;;;;;;25.20;42.90;;;;;;1600074;73;1017;-74
2022/02/28 09:20:35;;;;;;;;;;;25.20;42.80;;;;;;1600514;73;733;-74
2022/02/28 09:22:37;;;;;;;;;;;25.20;42.80;;;;;;1600516;74;703;-75
2022/02/28 09:24:39;;;;;;;;;;;25.30;42.70;;;;;;1600218;73;755;-74
2022/02/28 09:26:42;;;;;;;;;;;25.30;42.70;;;;;;1600332;74;1930;-74
2022/02/28 09:28:44;;;;;;;;;;;25.30;42.70;;;;;;1600348;73;786;-74
2022/02/28 09:30:45;;;;;;;;;;;25.40;42.60;;;;;;1594032;74;1194;-75
2022/02/28 09:32:47;;;;;;;;;;;25.40;42.60;;;;;;1600518;74;798;-77
2022/02/28 09:34:49;;;;;;;;;;;25.30;42.50;;;;;;1600600;74;751;-72
2022/02/28 09:36:51;;;;;;;;;;;25.30;42.40;;;;;;1600410;73;820;-74
2022/02/28 09:38:53;;;;;;;;;;;25.40;42.40;;;;;;1600513;74;567;-73
2022/02/28 09:40:55;;;;;;;;;;;25.40;42.50;;;;;;1600587;74;1244;-75
2022/02/28 09:42:58;;;;;;;;;;;25.40;42.40;;;;;;1600416;74;696;-75
2022/02/28 09:45:01;;;;;;;;;;;25.40;42.40;;;;;;1600368;74;691;-75
2022/02/28 09:47:03;;;;;;;;;;;25.40;42.40;;;;;;1600209;73;1932;-75
2022/02/28 09:49:05;;;;;;;;;;;25.40;42.40;;;;;;1600423;74;722;-74
2022/02/28 09:51:07;;;;;;;;;;;25.50;42.30;;;;;;1600433;73;1251;-75
2022/02/28 09:53:08;;;;;;;;;;;25.50;42.30;;;;;;1596750;74;643;-73
2022/02/28 09:55:12;;;;;;;;;;;25.50;42.20;;;;;;1599986;74;717;-72
2022/02/28 09:57:15;;;;;;;;;;;25.50;42.20;;;;;;1600230;74;1461;-71
2022/02/28 09:59:19;;;;;;;;;;;25.60;42.10;;;;;;1600225;73;770;-73
2022/02/28 10:01:22;;;;;;;;;;;25.60;42.10;;;;;;1596016;74;1145;-72
2022/02/28 10:03:27;;;;;;;;;;;25.60;42.00;;;;;;1600641;74;798;-71
2022/02/28 10:05:28;;;;;;;;;;;25.60;41.90;;;;;;1600514;74;1931;-72
2022/02/28 10:07:30;;;;;;;;;;;25.50;41.90;;;;;;1600411;73;790;-72
2022/02/28 10:09:32;;;;;;;;;;;25.50;41.90;;;;;;1600690;74;744;-71
2022/02/28 10:11:38;;;;;;;;;;;25.60;41.80;;;;;;1600500;74;1111;-71
2022/02/28 10:13:39;;;;;;;;;;;25.60;41.90;;;;;;1596169;74;1139;-72
2022/02/28 10:15:41;;;;;;;;;;;25.60;41.80;;;;;;1588761;73;750;-72
2022/02/28 10:17:49;;;;;;;;;;;25.60;41.80;;;;;;1600661;74;739;-74
2022/02/28 10:19:51;;;;;;;;;;;25.60;41.80;;;;;;1595425;73;985;-71
2022/02/28 10:21:55;;;;;;;;;;;25.60;41.80;;;;;;1562804;75;1324;-72
2022/02/28 10:23:57;;;;;;;;;;;25.60;41.80;;;;;;1597010;74;720;-71
2022/02/28 10:25:59;;;;;;;;;;;25.50;41.80;;;;;;1599759;74;1944;-73
2022/02/28 10:28:07;;;;;;;;;;;25.50;41.80;;;;;;1600595;74;799;-72
2022/02/28 10:30:11;;;;;;;;;;;25.50;41.80;;;;;;1600402;74;700;-72
2022/02/28 10:32:13;;;;;;;;;;;25.50;41.80;;;;;;1600350;74;1641;-71
2022/02/28 10:34:19;;;;;;;;;;;25.50;41.70;;;;;;1596976;74;741;-71
2022/02/28 10:36:24;;;;;;;;;;;25.50;41.70;;;;;;1599758;73;1652;-72
2022/02/28 10:38:26;;;;;;;;;;;25.50;41.70;;;;;;1600596;74;798;-72
2022/02/28 10:40:32;;;;;;;;;;;25.50;41.70;;;;;;1600599;74;730;-72
2022/02/28 10:42:46;;;;;;;;;;;25.60;41.70;;;;;;1600370;74;1144;-72
2022/02/28 10:44:50;;;;;;;;;;;25.50;41.60;;;;;;1598660;73;826;-71
2022/02/28 10:46:52;;;;;;;;;;;25.50;41.60;;;;;;1600239;74;1911;-72
2022/02/28 10:48:55;;;;;;;;;;;25.50;41.60;;;;;;1600576;74;761;-72
2022/02/28 10:50:57;;;;;;;;;;;25.50;41.60;;;;;;1596201;73;1112;-72
2022/02/28 10:53:00;;;;;;;;;;;25.50;41.60;;;;;;1595648;74;810;-73
2022/02/28 10:55:03;;;;;;;;;;;25.50;41.50;;;;;;1600379;74;707;-71
2022/02/28 10:57:06;;;;;;;;;;;25.60;41.50;;;;;;1600614;74;743;-71
2022/02/28 10:59:07;;;;;;;;;;;25.50;41.50;;;;;;1600426;73;782;-71
2022/02/28 11:01:09;;;;;;;;;;;25.50;41.50;;;;;;1600747;74;1140;-72
2022/02/28 11:03:11;;;;;;;;;;;25.50;41.50;;;;;;1600476;74;746;-76
2022/02/28 11:05:15;;;;;;;;;;;25.50;41.60;;;;;;1600633;74;742;-74
2022/02/28 11:07:18;;;;;;;;;;;25.40;42.00;;;;;;1600200;73;1924;-71
2022/02/28 11:09:22;;;;;;;;;;;25.40;42.30;;;;;;1590309;73;1004;-71
2022/02/28 11:11:24;;;;;;;;;;;25.40;42.50;;;;;;1596367;73;1158;-73
2022/02/28 11:13:25;;;;;;;;;;;25.50;42.60;;;;;;1600519;74;754;-70
2022/02/28 11:15:27;;;;;;;;;;;25.40;42.70;;;;;;1601237;73;895;-70
2022/02/28 11:17:30;;;;;;;;;;;25.40;42.80;;;;;;1599198;74;740;-70
2022/02/28 11:19:32;;;;;;;;;;;25.40;42.90;;;;;;1599982;73;804;-71
2022/02/28 11:21:35;;;;;;;;;;;25.50;42.90;;;;;;1600532;74;1135;-70
2022/02/28 11:23:38;;;;;;;;;;;25.50;43.10;;;;;;1600645;73;713;-70
2022/02/28 11:25:40;;;;;;;;;;;25.50;43.00;;;;;;1599652;74;678;-71
2022/02/28 11:27:43;;;;;;;;;;;25.60;43.10;;;;;;1600436;74;1924;-70
2022/02/28 11:29:45;;;;;;;;;;;25.50;43.20;;;;;;1600384;73;773;-71
2022/02/28 11:31:48;;;;;;;;;;;25.50;43.20;;;;;;1600434;74;1202;-70
2022/02/28 11:33:52;;;;;;;;;;;25.40;43.30;;;;;;1599685;74;1838;-71
2022/02/28 11:35:54;;;;;;;;;;;25.40;43.20;;;;;;1597938;74;1193;-71
2022/02/28 11:37:55;;;;;;;;;;;25.50;43.40;;;;;;1600468;73;781;-71
2022/02/28 11:40:04;;;;;;;;;;;25.40;43.40;;;;;;1600750;74;800;-72
2022/02/28 11:42:08;;;;;;;;;;;25.50;43.40;;;;;;1596221;74;1156;-71
2022/02/28 11:44:12;;;;;;;;;;;25.50;43.40;;;;;;1600386;74;678;-72
2022/02/28 11:46:14;;;;;;;;;;;25.40;43.40;;;;;;1599808;73;1903;-72
2022/02/28 11:48:18;;;;;;;;;;;25.50;43.50;;;;;;1600360;74;728;-72
2022/02/28 11:50:20;;;;;;;;;;;25.60;43.50;;;;;;1598356;73;1084;-71
2022/02/28 11:52:23;;;;;;;;;;;25.40;43.50;;;;;;1600496;74;1108;-70
2022/02/28 11:54:26;;;;;;;;;;;25.40;43.50;;;;;;1597250;74;1119;-71
2022/02/28 11:56:34;;;;;;;;;;;25.40;43.60;;;;;;1593330;74;705;-71
2022/02/28 11:58:36;;;;;;;;;;;25.40;43.60;;;;;;1598019;74;786;-71
2022/02/28 12:00:42;;;;;;;;;;;25.40;43.60;;;;;;1596339;73;1157;-70
2022/02/28 12:02:44;;;;;;;;;;;25.40;43.60;;;;;;1555157;75;1244;-71
2022/02/28 12:04:46;;;;;;;;;;;25.40;43.60;;;;;;1600632;73;792;-70
2022/02/28 12:06:53;;;;;;;;;;;25.50;43.60;;;;;;1600423;74;1933;-70
2022/02/28 12:08:55;;;;;;;;;;;25.50;43.60;;;;;;1600525;73;723;-71